sensor_id;sensor_type;location;lat;lon;timestamp;pressure;altitude;pressure_sealevel;temperature;humidity
14117;BME280;7137;51.436;6.544;2023-06-14T00:01:56;100948.31;;;20.39;48.61
14117;BME280;7137;51.436;6.544;2023-06-14T00:04:59;100950.66;;;20.31;47.58
14117;BME280;7137;51.436;6.544;2023-06-14T00:08:01;100953.09;;;20.22;49.05
14117;BME280;7137;51.436;6.544;2023-06-14T00:11:03;100945.84;;;20.11;48.71
14117;BME280;7137;51.436;6.544;2023-06-14T00:14:05;100951.38;;;20.08;47.14
14117;BME280;7137;51.436;6.544;2023-06-14T00:17:07;100949.28;;;20.13;48.29
14117;BME280;7137;51.436;6.544;2023-06-14T00:20:11;100952.28;;;19.94;49.58
14117;BME280;7137;51.436;6.544;2023-06-14T00:23:12;100960.81;;;19.99;49.18
14117;BME280;7137;51.436;6.544;2023-06-14T00:26:15;100963.47;;;19.99;48.69
14117;BME280;7137;51.436;6.544;2023-06-14T00:29:16;100963.16;;;20.04;47.85
14117;BME280;7137;51.436;6.544;2023-06-14T00:32:18;100974.13;;;19.85;48.89
14117;BME280;7137;51.436;6.544;2023-06-14T00:35:26;100975.06;;;19.84;49.85
14117;BME280;7137;51.436;6.544;2023-06-14T00:38:27;100978.34;;;19.75;49.13
14117;BME280;7137;51.436;6.544;2023-06-14T00:41:29;100981.31;;;19.83;50.09
14117;BME280;7137;51.436;6.544;2023-06-14T00:44:30;100984.06;;;19.81;49.11
14117;BME280;7137;51.436;6.544;2023-06-14T00:47:32;100974.22;;;19.83;48.88
14117;BME280;7137;51.436;6.544;2023-06-14T00:50:35;100980.78;;;19.78;48.41
14117;BME280;7137;51.436;6.544;2023-06-14T00:53:38;100976.97;;;19.55;50.33
14117;BME280;7137;51.436;6.544;2023-06-14T00:56:43;100989.38;;;19.54;50.01
14117;BME280;7137;51.436;6.544;2023-06-14T00:59:46;100987.41;;;19.44;49.67
14117;BME280;7137;51.436;6.544;2023-06-14T01:02:48;100997.16;;;19.43;49.33
14117;BME280;7137;51.436;6.544;2023-06-14T01:05:59;100999.03;;;19.41;49.33
14117;BME280;7137;51.436;6.544;2023-06-14T01:09:06;100990.94;;;19.30;51.10
14117;BME280;7137;51.436;6.544;2023-06-14T01:12:15;100997.00;;;19.18;49.72
14117;BME280;7137;51.436;6.544;2023-06-14T01:15:20;100993.31;;;19.06;50.35
14117;BME280;7137;51.436;6.544;2023-06-14T01:18:22;100991.97;;;18.99;50.78
14117;BME280;7137;51.436;6.544;2023-06-14T01:21:27;100994.72;;;18.97;50.11
14117;BME280;7137;51.436;6.544;2023-06-14T01:24:31;100982.16;;;19.01;50.68
14117;BME280;7137;51.436;6.544;2023-06-14T01:27:35;100987.63;;;19.12;49.02
14117;BME280;7137;51.436;6.544;2023-06-14T01:30:37;100989.25;;;19.15;48.17
14117;BME280;7137;51.436;6.544;2023-06-14T01:33:39;100991.28;;;19.24;48.20
14117;BME280;7137;51.436;6.544;2023-06-14T01:36:43;100991.09;;;19.27;48.36
14117;BME280;7137;51.436;6.544;2023-06-14T01:39:47;100992.91;;;19.26;47.04
14117;BME280;7137;51.436;6.544;2023-06-14T01:42:50;100993.28;;;19.20;47.77
14117;BME280;7137;51.436;6.544;2023-06-14T01:45:53;100987.88;;;19.36;47.70
14117;BME280;7137;51.436;6.544;2023-06-14T01:48:55;100994.97;;;19.36;46.71
14117;BME280;7137;51.436;6.544;2023-06-14T01:51:57;100989.38;;;19.40;47.19
14117;BME280;7137;51.436;6.544;2023-06-14T01:55:00;100992.53;;;19.33;47.30
14117;BME280;7137;51.436;6.544;2023-06-14T01:58:04;100988.72;;;19.37;46.94
14117;BME280;7137;51.436;6.544;2023-06-14T02:01:06;100992.06;;;19.12;48.32
14117;BME280;7137;51.436;6.544;2023-06-14T02:04:07;100989.28;;;19.27;47.76
14117;BME280;7137;51.436;6.544;2023-06-14T02:07:09;100995.81;;;19.36;47.44
14117;BME280;7137;51.436;6.544;2023-06-14T02:10:12;100987.78;;;19.38;47.04
14117;BME280;7137;51.436;6.544;2023-06-14T02:13:13;100997.72;;;19.34;48.15
14117;BME280;7137;51.436;6.544;2023-06-14T02:16:15;100998.78;;;19.17;47.35
14117;BME280;7137;51.436;6.544;2023-06-14T02:19:18;100994.03;;;19.22;46.81
14117;BME280;7137;51.436;6.544;2023-06-14T02:22:19;100994.25;;;19.19;48.03
14117;BME280;7137;51.436;6.544;2023-06-14T02:25:23;100994.06;;;18.94;48.15
14117;BME280;7137;51.436;6.544;2023-06-14T02:28:25;100993.50;;;19.03;47.87
14117;BME280;7137;51.436;6.544;2023-06-14T02:31:26;100998.50;;;19.08;47.89
14117;BME280;7137;51.436;6.544;2023-06-14T02:34:29;100995.66;;;18.82;48.54
14117;BME280;7137;51.436;6.544;2023-06-14T02:37:31;100998.13;;;18.99;48.32
14117;BME280;7137;51.436;6.544;2023-06-14T02:40:35;101000.00;;;18.83;47.95
14117;BME280;7137;51.436;6.544;2023-06-14T02:43:37;101002.66;;;18.83;48.39
14117;BME280;7137;51.436;6.544;2023-06-14T02:46:38;101009.28;;;18.76;48.37
14117;BME280;7137;51.436;6.544;2023-06-14T02:49:40;101006.75;;;18.75;48.34
14117;BME280;7137;51.436;6.544;2023-06-14T02:52:42;101005.28;;;18.69;48.45
14117;BME280;7137;51.436;6.544;2023-06-14T02:55:46;101003.88;;;18.63;48.36
14117;BME280;7137;51.436;6.544;2023-06-14T02:58:48;101009.44;;;18.59;48.83
14117;BME280;7137;51.436;6.544;2023-06-14T03:01:50;101019.16;;;18.58;48.97
14117;BME280;7137;51.436;6.544;2023-06-14T03:04:52;101023.16;;;18.65;48.36
14117;BME280;7137;51.436;6.544;2023-06-14T03:07:54;101020.47;;;18.51;49.05
14117;BME280;7137;51.436;6.544;2023-06-14T03:10:57;101022.63;;;18.45;49.27
14117;BME280;7137;51.436;6.544;2023-06-14T03:13:59;101024.34;;;18.46;49.33
14117;BME280;7137;51.436;6.544;2023-06-14T03:17:04;101033.03;;;18.48;49.03
14117;BME280;7137;51.436;6.544;2023-06-14T03:20:08;101035.00;;;18.44;48.93
14117;BME280;7137;51.436;6.544;2023-06-14T03:23:10;101034.59;;;18.36;49.17
14117;BME280;7137;51.436;6.544;2023-06-14T03:26:13;101035.91;;;18.43;49.31
14117;BME280;7137;51.436;6.544;2023-06-14T03:29:15;101032.53;;;18.41;49.39
14117;BME280;7137;51.436;6.544;2023-06-14T03:32:16;101045.28;;;18.34;48.90
14117;BME280;7137;51.436;6.544;2023-06-14T03:35:18;101039.59;;;18.40;49.23
14117;BME280;7137;51.436;6.544;2023-06-14T03:38:20;101040.66;;;18.38;48.96
14117;BME280;7137;51.436;6.544;2023-06-14T03:41:23;101045.66;;;18.43;48.96
14117;BME280;7137;51.436;6.544;2023-06-14T03:44:26;101050.56;;;18.34;49.29
14117;BME280;7137;51.436;6.544;2023-06-14T03:47:28;101056.50;;;18.38;49.86
14117;BME280;7137;51.436;6.544;2023-06-14T03:50:29;101056.50;;;18.38;48.74
14117;BME280;7137;51.436;6.544;2023-06-14T03:53:32;101056.78;;;18.33;48.62
14117;BME280;7137;51.436;6.544;2023-06-14T03:56:37;101066.91;;;18.41;49.46
14117;BME280;7137;51.436;6.544;2023-06-14T03:59:39;101061.41;;;18.60;48.46
14117;BME280;7137;51.436;6.544;2023-06-14T04:02:41;101062.50;;;18.56;47.69
14117;BME280;7137;51.436;6.544;2023-06-14T04:05:44;101064.22;;;18.57;48.77
14117;BME280;7137;51.436;6.544;2023-06-14T04:08:49;101066.00;;;18.56;48.37
14117;BME280;7137;51.436;6.544;2023-06-14T04:11:52;101070.25;;;18.45;48.84
14117;BME280;7137;51.436;6.544;2023-06-14T04:14:54;101074.31;;;18.66;48.19
14117;BME280;7137;51.436;6.544;2023-06-14T04:17:55;101081.19;;;18.68;47.73
14117;BME280;7137;51.436;6.544;2023-06-14T04:20:57;101081.09;;;18.70;47.38
14117;BME280;7137;51.436;6.544;2023-06-14T04:23:59;101085.81;;;18.65;47.67
14117;BME280;7137;51.436;6.544;2023-06-14T04:27:03;101090.78;;;18.55;47.98
14117;BME280;7137;51.436;6.544;2023-06-14T04:30:06;101087.09;;;18.58;47.94
14117;BME280;7137;51.436;6.544;2023-06-14T04:33:08;101094.72;;;18.48;48.80
14117;BME280;7137;51.436;6.544;2023-06-14T04:36:10;101097.59;;;18.59;48.09
14117;BME280;7137;51.436;6.544;2023-06-14T04:39:13;101103.41;;;18.66;48.02
14117;BME280;7137;51.436;6.544;2023-06-14T04:42:16;101095.28;;;18.69;47.74
14117;BME280;7137;51.436;6.544;2023-06-14T04:45:21;101103.09;;;18.86;47.83
14117;BME280;7137;51.436;6.544;2023-06-14T04:48:22;101109.53;;;18.96;47.75
14117;BME280;7137;51.436;6.544;2023-06-14T04:51:25;101105.81;;;18.85;48.10
14117;BME280;7137;51.436;6.544;2023-06-14T04:54:29;101110.91;;;18.74;47.37
14117;BME280;7137;51.436;6.544;2023-06-14T04:57:35;101113.13;;;18.95;47.82
14117;BME280;7137;51.436;6.544;2023-06-14T05:00:38;101112.56;;;18.90;47.05
14117;BME280;7137;51.436;6.544;2023-06-14T05:03:42;101113.97;;;18.96;47.67
14117;BME280;7137;51.436;6.544;2023-06-14T05:06:45;101121.59;;;19.16;48.15
14117;BME280;7137;51.436;6.544;2023-06-14T05:09:48;101125.91;;;19.03;47.72
14117;BME280;7137;51.436;6.544;2023-06-14T05:12:51;101122.91;;;19.23;47.08
14117;BME280;7137;51.436;6.544;2023-06-14T05:15:53;101124.91;;;19.48;47.46
14117;BME280;7137;51.436;6.544;2023-06-14T05:18:54;101134.84;;;19.45;46.76
14117;BME280;7137;51.436;6.544;2023-06-14T05:21:57;101134.13;;;19.57;45.29
14117;BME280;7137;51.436;6.544;2023-06-14T05:24:58;101137.03;;;19.67;45.99
14117;BME280;7137;51.436;6.544;2023-06-14T05:28:01;101144.50;;;19.89;44.99
14117;BME280;7137;51.436;6.544;2023-06-14T05:31:03;101143.59;;;20.70;44.65
14117;BME280;7137;51.436;6.544;2023-06-14T05:34:04;101137.94;;;22.39;40.53
14117;BME280;7137;51.436;6.544;2023-06-14T05:37:06;101141.84;;;23.50;37.27
14117;BME280;7137;51.436;6.544;2023-06-14T05:40:08;101154.09;;;25.46;34.76
14117;BME280;7137;51.436;6.544;2023-06-14T05:43:12;101156.25;;;26.71;31.96
14117;BME280;7137;51.436;6.544;2023-06-14T05:46:13;101161.19;;;27.61;30.49
14117;BME280;7137;51.436;6.544;2023-06-14T05:49:15;101170.78;;;26.88;32.42
14117;BME280;7137;51.436;6.544;2023-06-14T05:52:16;101170.81;;;28.19;30.29
14117;BME280;7137;51.436;6.544;2023-06-14T05:55:18;101181.88;;;31.79;25.53
14117;BME280;7137;51.436;6.544;2023-06-14T05:58:21;101181.03;;;29.22;27.60
14117;BME280;7137;51.436;6.544;2023-06-14T06:01:23;101181.47;;;31.99;25.30
14117;BME280;7137;51.436;6.544;2023-06-14T06:04:25;101182.00;;;33.31;24.15
14117;BME280;7137;51.436;6.544;2023-06-14T06:07:27;101184.47;;;33.41;22.17
14117;BME280;7137;51.436;6.544;2023-06-14T06:10:28;101186.09;;;33.50;24.21
14117;BME280;7137;51.436;6.544;2023-06-14T06:13:31;101189.97;;;33.92;22.98
14117;BME280;7137;51.436;6.544;2023-06-14T06:16:33;101191.13;;;34.76;22.43
14117;BME280;7137;51.436;6.544;2023-06-14T06:19:35;101187.56;;;33.53;23.98
14117;BME280;7137;51.436;6.544;2023-06-14T06:22:37;101189.63;;;34.89;21.72
14117;BME280;7137;51.436;6.544;2023-06-14T06:25:39;101193.13;;;36.95;20.20
14117;BME280;7137;51.436;6.544;2023-06-14T06:28:43;101187.91;;;35.09;21.08
14117;BME280;7137;51.436;6.544;2023-06-14T06:31:44;101194.56;;;35.62;20.95
14117;BME280;7137;51.436;6.544;2023-06-14T06:34:46;101181.50;;;35.86;20.24
14117;BME280;7137;51.436;6.544;2023-06-14T06:37:48;101187.28;;;34.28;22.40
14117;BME280;7137;51.436;6.544;2023-06-14T06:40:49;101187.31;;;30.33;26.32
14117;BME280;7137;51.436;6.544;2023-06-14T06:43:52;101185.03;;;32.30;24.64
14117;BME280;7137;51.436;6.544;2023-06-14T06:46:54;101192.84;;;32.17;24.05
14117;BME280;7137;51.436;6.544;2023-06-14T06:49:55;101190.28;;;31.13;25.49
14117;BME280;7137;51.436;6.544;2023-06-14T06:52:57;101195.75;;;32.92;22.98
14117;BME280;7137;51.436;6.544;2023-06-14T06:55:58;101199.00;;;33.25;22.24
14117;BME280;7137;51.436;6.544;2023-06-14T06:59:01;101207.84;;;32.59;22.55
14117;BME280;7137;51.436;6.544;2023-06-14T07:02:04;101213.38;;;34.08;22.52
14117;BME280;7137;51.436;6.544;2023-06-14T07:05:06;101220.97;;;33.30;22.94
14117;BME280;7137;51.436;6.544;2023-06-14T07:08:07;101229.13;;;33.45;20.95
14117;BME280;7137;51.436;6.544;2023-06-14T07:11:09;101228.25;;;34.48;21.11
14117;BME280;7137;51.436;6.544;2023-06-14T07:14:12;101231.16;;;33.96;20.48
14117;BME280;7137;51.436;6.544;2023-06-14T07:17:13;101233.50;;;35.69;20.52
14117;BME280;7137;51.436;6.544;2023-06-14T07:20:15;101238.44;;;38.20;17.71
14117;BME280;7137;51.436;6.544;2023-06-14T07:23:16;101224.72;;;36.09;20.04
14117;BME280;7137;51.436;6.544;2023-06-14T07:26:18;101231.31;;;34.09;21.45
14117;BME280;7137;51.436;6.544;2023-06-14T07:29:21;101227.69;;;32.74;22.34
14117;BME280;7137;51.436;6.544;2023-06-14T07:32:23;101229.38;;;32.13;23.15
14117;BME280;7137;51.436;6.544;2023-06-14T07:35:24;101223.13;;;34.96;20.33
14117;BME280;7137;51.436;6.544;2023-06-14T07:38:26;101226.72;;;33.13;21.98
14117;BME280;7137;51.436;6.544;2023-06-14T07:41:28;101226.84;;;30.08;24.30
14117;BME280;7137;51.436;6.544;2023-06-14T07:44:30;101229.91;;;33.39;21.73
14117;BME280;7137;51.436;6.544;2023-06-14T07:47:33;101242.78;;;34.26;21.72
14117;BME280;7137;51.436;6.544;2023-06-14T07:50:35;101233.84;;;31.98;23.12
14117;BME280;7137;51.436;6.544;2023-06-14T07:53:36;101234.88;;;32.90;22.71
14117;BME280;7137;51.436;6.544;2023-06-14T07:56:38;101238.41;;;34.82;20.12
14117;BME280;7137;51.436;6.544;2023-06-14T07:59:41;101238.53;;;36.07;19.68
14117;BME280;7137;51.436;6.544;2023-06-14T08:02:43;101243.22;;;36.26;18.88
14117;BME280;7137;51.436;6.544;2023-06-14T08:05:45;101236.91;;;33.63;20.87
14117;BME280;7137;51.436;6.544;2023-06-14T08:08:46;101232.13;;;31.41;22.33
14117;BME280;7137;51.436;6.544;2023-06-14T08:11:48;101242.66;;;32.39;22.50
14117;BME280;7137;51.436;6.544;2023-06-14T08:14:51;101232.63;;;33.16;22.36
14117;BME280;7137;51.436;6.544;2023-06-14T08:17:53;101234.69;;;34.11;22.03
14117;BME280;7137;51.436;6.544;2023-06-14T08:20:55;101239.84;;;35.77;19.14
14117;BME280;7137;51.436;6.544;2023-06-14T08:23:58;101244.81;;;36.69;18.31
14117;BME280;7137;51.436;6.544;2023-06-14T08:26:59;101244.47;;;35.83;18.83
14117;BME280;7137;51.436;6.544;2023-06-14T08:30:04;101238.59;;;32.89;21.01
14117;BME280;7137;51.436;6.544;2023-06-14T08:33:08;101238.97;;;35.42;19.93
14117;BME280;7137;51.436;6.544;2023-06-14T08:36:09;101240.28;;;33.65;20.79
14117;BME280;7137;51.436;6.544;2023-06-14T08:39:12;101239.34;;;33.20;21.87
14117;BME280;7137;51.436;6.544;2023-06-14T08:42:14;101237.72;;;32.96;22.69
14117;BME280;7137;51.436;6.544;2023-06-14T08:45:18;101224.81;;;32.13;23.31
14117;BME280;7137;51.436;6.544;2023-06-14T08:48:22;101232.94;;;32.98;23.43
14117;BME280;7137;51.436;6.544;2023-06-14T08:51:25;101227.16;;;29.27;25.92
14117;BME280;7137;51.436;6.544;2023-06-14T08:54:34;101216.28;;;28.93;26.80
14117;BME280;7137;51.436;6.544;2023-06-14T08:57:44;101227.47;;;28.35;27.77
14117;BME280;7137;51.436;6.544;2023-06-14T09:00:48;101222.44;;;28.13;27.24
14117;BME280;7137;51.436;6.544;2023-06-14T09:03:52;101222.78;;;30.12;26.15
14117;BME280;7137;51.436;6.544;2023-06-14T09:06:55;101218.25;;;29.78;26.61
14117;BME280;7137;51.436;6.544;2023-06-14T09:10:07;101227.03;;;31.06;26.34
14117;BME280;7137;51.436;6.544;2023-06-14T09:13:09;101229.75;;;31.46;24.51
14117;BME280;7137;51.436;6.544;2023-06-14T09:16:12;101230.97;;;30.36;26.88
14117;BME280;7137;51.436;6.544;2023-06-14T09:19:14;101223.06;;;29.67;26.61
14117;BME280;7137;51.436;6.544;2023-06-14T09:22:22;101226.75;;;27.68;29.11
14117;BME280;7137;51.436;6.544;2023-06-14T09:25:23;101231.09;;;28.79;28.13
14117;BME280;7137;51.436;6.544;2023-06-14T09:28:27;101237.38;;;28.52;27.29
14117;BME280;7137;51.436;6.544;2023-06-14T09:31:30;101235.78;;;27.77;28.19
14117;BME280;7137;51.436;6.544;2023-06-14T09:34:33;101247.53;;;27.57;29.77
14117;BME280;7137;51.436;6.544;2023-06-14T09:37:36;101255.06;;;27.24;30.18
14117;BME280;7137;51.436;6.544;2023-06-14T09:40:39;101253.78;;;28.59;28.33
14117;BME280;7137;51.436;6.544;2023-06-14T09:43:40;101247.13;;;30.28;26.31
14117;BME280;7137;51.436;6.544;2023-06-14T09:46:44;101236.09;;;28.01;28.33
14117;BME280;7137;51.436;6.544;2023-06-14T09:49:45;101239.34;;;27.68;30.43
14117;BME280;7137;51.436;6.544;2023-06-14T09:52:51;101239.56;;;28.12;29.67
14117;BME280;7137;51.436;6.544;2023-06-14T09:55:54;101245.16;;;26.67;30.64
14117;BME280;7137;51.436;6.544;2023-06-14T09:58:59;101248.09;;;26.54;30.09
14117;BME280;7137;51.436;6.544;2023-06-14T10:02:12;101250.22;;;26.10;31.27
14117;BME280;7137;51.436;6.544;2023-06-14T10:05:17;101248.38;;;26.51;30.90
14117;BME280;7137;51.436;6.544;2023-06-14T10:08:24;101242.19;;;26.70;31.15
14117;BME280;7137;51.436;6.544;2023-06-14T10:11:27;101253.25;;;27.25;29.89
14117;BME280;7137;51.436;6.544;2023-06-14T10:14:29;101254.34;;;26.64;30.93
14117;BME280;7137;51.436;6.544;2023-06-14T10:17:40;101244.75;;;27.00;30.78
14117;BME280;7137;51.436;6.544;2023-06-14T10:20:50;101251.25;;;26.78;31.31
14117;BME280;7137;51.436;6.544;2023-06-14T10:23:56;101232.44;;;27.46;29.25
14117;BME280;7137;51.436;6.544;2023-06-14T10:27:00;101240.56;;;27.07;29.47
14117;BME280;7137;51.436;6.544;2023-06-14T10:30:03;101240.81;;;29.51;27.30
14117;BME280;7137;51.436;6.544;2023-06-14T10:33:07;101239.81;;;27.34;28.52
14117;BME280;7137;51.436;6.544;2023-06-14T10:36:24;101232.19;;;26.62;30.04
14117;BME280;7137;51.436;6.544;2023-06-14T10:39:28;101252.03;;;26.40;29.88
14117;BME280;7137;51.436;6.544;2023-06-14T10:42:32;101236.78;;;26.00;31.58
14117;BME280;7137;51.436;6.544;2023-06-14T10:45:34;101240.78;;;26.16;30.63
14117;BME280;7137;51.436;6.544;2023-06-14T10:48:40;101246.56;;;25.81;29.94
14117;BME280;7137;51.436;6.544;2023-06-14T10:51:42;101239.19;;;25.31;30.43
14117;BME280;7137;51.436;6.544;2023-06-14T10:55:10;101239.84;;;25.44;31.43
14117;BME280;7137;51.436;6.544;2023-06-14T10:58:14;101231.97;;;25.22;31.87
14117;BME280;7137;51.436;6.544;2023-06-14T11:01:18;101235.69;;;25.52;31.92
14117;BME280;7137;51.436;6.544;2023-06-14T11:04:34;101223.47;;;25.38;31.74
14117;BME280;7137;51.436;6.544;2023-06-14T11:07:56;101226.19;;;25.48;31.53
14117;BME280;7137;51.436;6.544;2023-06-14T11:11:05;101224.41;;;25.48;31.26
14117;BME280;7137;51.436;6.544;2023-06-14T11:14:07;101236.66;;;25.30;30.71
14117;BME280;7137;51.436;6.544;2023-06-14T11:17:09;101227.59;;;25.42;31.03
14117;BME280;7137;51.436;6.544;2023-06-14T11:20:15;101222.56;;;25.07;32.13
14117;BME280;7137;51.436;6.544;2023-06-14T11:23:17;101232.63;;;25.35;31.77
14117;BME280;7137;51.436;6.544;2023-06-14T11:26:26;101230.50;;;25.18;32.05
14117;BME280;7137;51.436;6.544;2023-06-14T11:29:29;101226.06;;;25.70;31.27
14117;BME280;7137;51.436;6.544;2023-06-14T11:32:32;101231.75;;;26.07;30.89
14117;BME280;7137;51.436;6.544;2023-06-14T11:35:35;101221.25;;;25.94;31.20
14117;BME280;7137;51.436;6.544;2023-06-14T11:38:36;101225.09;;;25.71;30.74
14117;BME280;7137;51.436;6.544;2023-06-14T11:41:42;101213.97;;;25.24;31.70
14117;BME280;7137;51.436;6.544;2023-06-14T11:44:45;101206.19;;;25.00;32.40
14117;BME280;7137;51.436;6.544;2023-06-14T11:47:47;101227.78;;;25.29;31.59
14117;BME280;7137;51.436;6.544;2023-06-14T11:50:51;101223.16;;;25.10;32.09
14117;BME280;7137;51.436;6.544;2023-06-14T11:53:52;101235.13;;;25.58;31.46
14117;BME280;7137;51.436;6.544;2023-06-14T11:56:54;101231.25;;;25.62;30.96
14117;BME280;7137;51.436;6.544;2023-06-14T11:59:55;101238.63;;;25.69;32.13
14117;BME280;7137;51.436;6.544;2023-06-14T12:02:58;101230.06;;;25.55;31.34
14117;BME280;7137;51.436;6.544;2023-06-14T12:06:06;101215.63;;;25.46;31.69
14117;BME280;7137;51.436;6.544;2023-06-14T12:09:08;101218.63;;;25.32;31.88
14117;BME280;7137;51.436;6.544;2023-06-14T12:12:13;101228.81;;;25.17;31.58
14117;BME280;7137;51.436;6.544;2023-06-14T12:15:15;101218.28;;;25.36;31.04
14117;BME280;7137;51.436;6.544;2023-06-14T12:18:17;101214.44;;;25.60;32.02
14117;BME280;7137;51.436;6.544;2023-06-14T12:21:23;101223.13;;;25.73;30.75
14117;BME280;7137;51.436;6.544;2023-06-14T12:24:28;101225.66;;;25.74;31.98
14117;BME280;7137;51.436;6.544;2023-06-14T12:27:31;101219.94;;;25.79;31.79
14117;BME280;7137;51.436;6.544;2023-06-14T12:30:33;101217.66;;;25.33;31.46
14117;BME280;7137;51.436;6.544;2023-06-14T12:33:35;101228.56;;;25.62;31.32
14117;BME280;7137;51.436;6.544;2023-06-14T12:36:38;101227.38;;;25.55;32.52
14117;BME280;7137;51.436;6.544;2023-06-14T12:39:44;101233.13;;;25.50;32.16
14117;BME280;7137;51.436;6.544;2023-06-14T12:42:46;101232.69;;;24.92;32.28
14117;BME280;7137;51.436;6.544;2023-06-14T12:45:48;101229.44;;;25.21;32.37
14117;BME280;7137;51.436;6.544;2023-06-14T12:48:49;101225.63;;;25.23;33.26
14117;BME280;7137;51.436;6.544;2023-06-14T12:51:52;101218.28;;;25.67;32.62
14117;BME280;7137;51.436;6.544;2023-06-14T12:54:54;101221.88;;;26.08;31.94
14117;BME280;7137;51.436;6.544;2023-06-14T12:57:55;101229.06;;;26.17;31.91
14117;BME280;7137;51.436;6.544;2023-06-14T13:00:57;101226.06;;;26.41;31.13
14117;BME280;7137;51.436;6.544;2023-06-14T13:03:58;101232.25;;;25.91;31.09
14117;BME280;7137;51.436;6.544;2023-06-14T13:07:03;101229.81;;;25.37;32.12
14117;BME280;7137;51.436;6.544;2023-06-14T13:10:05;101222.38;;;25.20;32.71
14117;BME280;7137;51.436;6.544;2023-06-14T13:13:07;101222.31;;;25.10;33.19
14117;BME280;7137;51.436;6.544;2023-06-14T13:16:09;101211.66;;;25.40;32.98
14117;BME280;7137;51.436;6.544;2023-06-14T13:19:11;101212.84;;;25.27;32.56
14117;BME280;7137;51.436;6.544;2023-06-14T13:22:14;101219.56;;;25.42;33.14
14117;BME280;7137;51.436;6.544;2023-06-14T13:25:15;101226.03;;;25.39;33.38
14117;BME280;7137;51.436;6.544;2023-06-14T13:28:17;101225.47;;;25.04;33.30
14117;BME280;7137;51.436;6.544;2023-06-14T13:31:18;101222.44;;;24.97;33.38
14117;BME280;7137;51.436;6.544;2023-06-14T13:34:20;101220.09;;;25.36;33.60
14117;BME280;7137;51.436;6.544;2023-06-14T13:37:23;101220.59;;;25.30;33.62
14117;BME280;7137;51.436;6.544;2023-06-14T13:40:25;101215.31;;;25.39;34.09
14117;BME280;7137;51.436;6.544;2023-06-14T13:43:26;101207.06;;;25.73;33.78
14117;BME280;7137;51.436;6.544;2023-06-14T13:46:28;101208.59;;;25.96;33.55
14117;BME280;7137;51.436;6.544;2023-06-14T13:49:30;101211.13;;;25.98;33.10
14117;BME280;7137;51.436;6.544;2023-06-14T13:52:33;101199.78;;;25.85;33.54
14117;BME280;7137;51.436;6.544;2023-06-14T13:55:35;101204.91;;;25.67;33.54
14117;BME280;7137;51.436;6.544;2023-06-14T13:58:37;101212.75;;;25.80;33.50
14117;BME280;7137;51.436;6.544;2023-06-14T14:01:39;101213.97;;;26.06;33.78
14117;BME280;7137;51.436;6.544;2023-06-14T14:04:41;101210.50;;;25.85;33.55
14117;BME280;7137;51.436;6.544;2023-06-14T14:07:44;101212.78;;;25.38;33.75
14117;BME280;7137;51.436;6.544;2023-06-14T14:10:46;101195.25;;;25.55;33.73
14117;BME280;7137;51.436;6.544;2023-06-14T14:13:47;101211.63;;;25.61;33.86
14117;BME280;7137;51.436;6.544;2023-06-14T14:16:49;101204.19;;;25.34;34.16
14117;BME280;7137;51.436;6.544;2023-06-14T14:19:51;101193.97;;;25.49;33.87
14117;BME280;7137;51.436;6.544;2023-06-14T14:22:54;101205.00;;;25.86;33.76
14117;BME280;7137;51.436;6.544;2023-06-14T14:25:56;101174.06;;;25.93;33.00
14117;BME280;7137;51.436;6.544;2023-06-14T14:28:58;101202.75;;;26.31;33.54
14117;BME280;7137;51.436;6.544;2023-06-14T14:32:00;101218.34;;;26.07;32.97
14117;BME280;7137;51.436;6.544;2023-06-14T14:35:01;101212.75;;;25.80;33.23
14117;BME280;7137;51.436;6.544;2023-06-14T14:38:04;101210.50;;;25.85;33.34
14117;BME280;7137;51.436;6.544;2023-06-14T14:41:06;101200.34;;;26.28;33.01
14117;BME280;7137;51.436;6.544;2023-06-14T14:44:08;101205.34;;;26.43;32.64
14117;BME280;7137;51.436;6.544;2023-06-14T14:47:09;101203.59;;;25.82;32.83
14117;BME280;7137;51.436;6.544;2023-06-14T14:50:11;101203.78;;;25.90;33.12
14117;BME280;7137;51.436;6.544;2023-06-14T14:53:14;101199.09;;;25.83;33.03
14117;BME280;7137;51.436;6.544;2023-06-14T14:56:16;101211.34;;;25.85;32.52
14117;BME280;7137;51.436;6.544;2023-06-14T14:59:18;101202.38;;;25.96;32.38
14117;BME280;7137;51.436;6.544;2023-06-14T15:02:22;101195.69;;;26.30;32.49
14117;BME280;7137;51.436;6.544;2023-06-14T15:05:24;101191.53;;;26.47;32.39
14117;BME280;7137;51.436;6.544;2023-06-14T15:08:27;101200.91;;;26.22;32.08
14117;BME280;7137;51.436;6.544;2023-06-14T15:11:28;101201.56;;;26.05;32.88
14117;BME280;7137;51.436;6.544;2023-06-14T15:14:30;101198.38;;;26.30;32.21
14117;BME280;7137;51.436;6.544;2023-06-14T15:17:32;101203.47;;;26.33;32.84
14117;BME280;7137;51.436;6.544;2023-06-14T15:20:33;101209.78;;;26.23;33.12
14117;BME280;7137;51.436;6.544;2023-06-14T15:23:36;101183.91;;;25.93;33.65
14117;BME280;7137;51.436;6.544;2023-06-14T15:26:38;101197.63;;;26.09;33.22
14117;BME280;7137;51.436;6.544;2023-06-14T15:29:41;101201.91;;;26.21;32.69
14117;BME280;7137;51.436;6.544;2023-06-14T15:32:43;101203.94;;;26.39;33.35
14117;BME280;7137;51.436;6.544;2023-06-14T15:35:44;101202.94;;;26.40;33.41
14117;BME280;7137;51.436;6.544;2023-06-14T15:38:47;101204.56;;;26.31;32.16
14117;BME280;7137;51.436;6.544;2023-06-14T15:41:49;101202.09;;;26.39;32.94
14117;BME280;7137;51.436;6.544;2023-06-14T15:44:51;101209.19;;;26.10;32.38
14117;BME280;7137;51.436;6.544;2023-06-14T15:47:53;101202.94;;;25.99;32.84
14117;BME280;7137;51.436;6.544;2023-06-14T15:50:54;101198.94;;;26.24;32.95
14117;BME280;7137;51.436;6.544;2023-06-14T15:53:57;101203.69;;;26.11;33.18
14117;BME280;7137;51.436;6.544;2023-06-14T15:56:59;101213.59;;;25.80;33.78
14117;BME280;7137;51.436;6.544;2023-06-14T16:00:00;101203.25;;;26.06;33.70
14117;BME280;7137;51.436;6.544;2023-06-14T16:03:03;101200.91;;;26.32;33.19
14117;BME280;7137;51.436;6.544;2023-06-14T16:06:04;101200.50;;;25.87;32.50
14117;BME280;7137;51.436;6.544;2023-06-14T16:09:07;101194.94;;;25.69;33.69